Time;durP1;ratioP1;P1;durP2;ratioP2;P2;SDS_P1;SDS_P2;PMS_P1;PMS_P2;Temp;Humidity;BMP_temperature;BMP_pressure;BME280_temperature;BME280_humidity;BME280_pressure;Samples;Min_cycle;Max_cycle;Signal;HPM_P1;HPM_P2
2022/07/02 00:02:22;;;;;;;1.25;0.80;;;;;;;28.39;38.38;101991.81;5050308;28;20103;-67
2022/07/02 00:04:57;;;;;;;1.23;0.75;;;;;;;28.34;38.10;101980.44;5032449;28;20025;-67
2022/07/02 00:07:24;;;;;;;1.45;0.90;;;;;;;28.36;38.12;101986.56;5044665;28;20112;-67
2022/07/02 00:09:49;;;;;;;2.35;0.75;;;;;;;28.32;38.44;101982.28;5049912;28;20519;-67
2022/07/02 00:12:15;;;;;;;1.52;1.00;;;;;;;28.31;38.44;101980.53;5050215;28;20052;-67
2022/07/02 00:14:41;;;;;;;1.00;0.80;;;;;;;28.35;38.23;101978.63;5044576;28;20475;-67
2022/07/02 00:17:08;;;;;;;1.92;0.90;;;;;;;28.29;38.20;101981.56;5049378;28;20494;-67
2022/07/02 00:19:36;;;;;;;1.10;0.77;;;;;;;28.26;38.41;101985.25;5048295;28;20056;-67
2022/07/02 00:22:02;;;;;;;1.60;0.90;;;;;;;28.29;38.43;101981.56;5049718;28;20025;-67
2022/07/02 00:24:27;;;;;;;2.47;0.95;;;;;;;28.29;38.12;101982.44;5048622;28;20035;-67
2022/07/02 00:26:57;;;;;;;1.30;0.90;;;;;;;28.34;38.49;101987.59;5048310;28;20090;-67
2022/07/02 00:29:51;;;;;;;1.50;0.90;;;;;;;28.23;38.37;101982.72;5048668;28;20021;-67
2022/07/02 00:32:17;;;;;;;1.60;0.90;;;;;;;28.23;38.59;101978.22;5048521;28;20438;-67
2022/07/02 00:34:44;;;;;;;0.85;0.68;;;;;;;28.20;38.66;101983.69;5049073;28;20078;-67
2022/07/02 00:37:11;;;;;;;1.27;0.90;;;;;;;28.25;38.53;101984.38;5049833;28;20020;-67
2022/07/02 00:39:37;;;;;;;1.25;0.80;;;;;;;28.22;38.47;101983.63;5049987;28;20370;-66
2022/07/02 00:42:05;;;;;;;1.52;0.90;;;;;;;28.21;38.66;101985.44;5049493;28;20039;-67
2022/07/02 00:44:31;;;;;;;1.20;0.80;;;;;;;28.20;38.72;101980.13;5047815;28;20087;-67
2022/07/02 00:47:03;;;;;;;1.85;0.90;;;;;;;28.19;38.61;101981.06;5049385;28;20025;-67
2022/07/02 00:49:31;;;;;;;1.00;0.80;;;;;;;28.21;38.74;101981.88;5049338;28;20087;-67
2022/07/02 00:51:57;;;;;;;1.45;0.90;;;;;;;28.22;38.67;101981.84;5049716;28;20446;-67
2022/07/02 00:54:22;;;;;;;1.67;0.80;;;;;;;28.22;38.52;101984.50;5044533;28;20060;-67
2022/07/02 00:56:47;;;;;;;1.42;0.80;;;;;;;28.17;38.54;101981.16;5049563;28;20435;-67
2022/07/02 00:59:13;;;;;;;1.25;0.80;;;;;;;28.17;38.45;101974.91;5049573;28;20021;-67
2022/07/02 01:01:38;;;;;;;1.08;0.80;;;;;;;28.22;38.55;101975.59;5049518;28;20078;-67
2022/07/02 01:04:05;;;;;;;3.22;0.85;;;;;;;28.17;38.55;101969.56;5047931;28;20068;-67
2022/07/02 01:06:33;;;;;;;0.90;0.80;;;;;;;28.15;38.67;101977.66;5048920;28;20064;-68
2022/07/02 01:11:45;;;;;;;1.30;0.80;;;;;;;28.15;38.40;101963.38;5049782;28;20119;-67
2022/07/02 01:14:11;;;;;;;0.73;0.68;;;;;;;28.13;38.90;101968.78;5048932;28;20037;-67
2022/07/02 01:16:37;;;;;;;1.23;0.70;;;;;;;28.11;38.98;101959.94;5049535;28;20025;-67
2022/07/02 01:19:04;;;;;;;1.73;0.75;;;;;;;28.12;38.63;101967.00;5048772;28;20033;-67
2022/07/02 01:21:30;;;;;;;1.30;0.70;;;;;;;28.11;38.63;101959.94;5049072;28;20028;-67
2022/07/02 01:23:55;;;;;;;0.98;0.60;;;;;;;28.15;38.75;101963.38;5048787;28;20040;-67
2022/07/02 01:26:20;;;;;;;1.20;0.70;;;;;;;28.15;38.78;101968.75;5048978;28;20087;-67
2022/07/02 01:28:46;;;;;;;0.90;0.80;;;;;;;28.14;38.60;101965.19;5047862;28;20040;-67
2022/07/02 01:31:11;;;;;;;1.35;0.90;;;;;;;28.14;38.58;101967.00;5051944;28;20021;-67
2022/07/02 01:33:37;;;;;;;1.30;0.90;;;;;;;28.08;38.83;101969.91;5051651;28;20127;-67
2022/07/02 01:36:02;;;;;;;1.15;0.70;;;;;;;28.11;38.77;101970.66;5052623;28;20033;-67
2022/07/02 01:38:27;;;;;;;1.65;0.90;;;;;;;28.11;38.63;101969.78;5052727;28;20044;-67
2022/07/02 01:41:38;;;;;;;0.93;0.70;;;;;;;28.10;38.83;101970.72;5052755;28;20029;-67
2022/07/02 01:43:38;;;;;;;1.08;0.80;;;;;;;28.09;38.66;101969.84;5050546;28;20597;-67
2022/07/02 01:46:03;;;;;;;1.42;0.85;;;;;;;28.10;38.48;101965.34;5052466;28;20029;-67
2022/07/02 01:48:29;;;;;;;0.98;0.68;;;;;;;28.10;38.64;101968.03;5052442;28;20032;-67
2022/07/02 01:50:54;;;;;;;1.23;0.80;;;;;;;28.08;38.89;101960.03;5051186;28;20025;-67
2022/07/02 01:53:19;;;;;;;1.92;0.82;;;;;;;28.05;38.93;101957.50;5052667;28;20028;-67
2022/07/02 01:55:45;;;;;;;1.25;0.90;;;;;;;28.07;38.93;101957.44;5050709;28;20027;-67
2022/07/02 01:58:10;;;;;;;1.00;0.70;;;;;;;28.04;38.74;101953.09;5050928;28;20717;-67
2022/07/02 02:00:35;;;;;;;0.90;0.70;;;;;;;28.05;38.86;101951.28;5051112;28;20029;-67
2022/07/02 02:03:01;;;;;;;1.65;0.80;;;;;;;28.05;38.69;101957.50;5052015;28;20082;-67
2022/07/02 02:05:27;;;;;;;2.08;0.90;;;;;;;28.07;38.71;101965.47;5047758;28;20052;-67
2022/07/02 02:07:53;;;;;;;0.95;0.70;;;;;;;28.05;38.48;101951.28;5049962;28;20035;-67
2022/07/02 02:10:18;;;;;;;1.10;0.80;;;;;;;28.03;38.66;101955.81;5051881;28;20033;-67
2022/07/02 02:12:43;;;;;;;1.00;0.80;;;;;;;28.01;39.07;101960.38;5051995;28;20056;-67
2022/07/02 02:15:09;;;;;;;1.35;0.80;;;;;;;27.98;38.84;101957.81;5052104;28;20033;-67
2022/07/02 02:17:34;;;;;;;0.80;0.70;;;;;;;27.96;39.01;101957.88;5052029;28;20035;-67
2022/07/02 02:20:00;;;;;;;2.47;0.90;;;;;;;28.01;38.93;101960.38;5051789;28;20033;-67
2022/07/02 02:22:25;;;;;;;1.50;0.80;;;;;;;27.96;39.07;101954.31;5050462;28;20059;-67
2022/07/02 02:24:53;;;;;;;0.80;0.70;;;;;;;27.98;38.58;101961.38;5050576;28;20070;-67
2022/07/02 02:27:19;;;;;;;1.08;0.80;;;;;;;27.95;38.70;101963.31;5051861;28;20647;-67
2022/07/02 02:29:44;;;;;;;1.15;0.80;;;;;;;27.91;39.21;101956.34;5051726;28;20056;-67
2022/07/02 02:32:09;;;;;;;1.13;0.90;;;;;;;27.93;38.84;101952.66;5051598;28;20033;-68
2022/07/02 02:34:35;;;;;;;1.30;0.80;;;;;;;27.92;39.00;101955.41;5051791;28;20036;-67
2022/07/02 02:37:00;;;;;;;1.10;0.80;;;;;;;27.90;38.92;101958.13;5051820;28;20036;-67
2022/07/02 02:39:26;;;;;;;1.20;0.88;;;;;;;27.88;38.99;101956.44;5051597;28;20036;-67
2022/07/02 02:41:51;;;;;;;0.93;0.70;;;;;;;27.93;38.90;101954.47;5049549;28;20037;-67
2022/07/02 02:44:16;;;;;;;1.30;0.70;;;;;;;27.91;38.91;101962.56;5050158;28;20063;-67
2022/07/02 02:46:42;;;;;;;1.15;0.90;;;;;;;27.94;38.84;101957.06;5051337;28;20036;-67
2022/07/02 02:49:07;;;;;;;2.10;0.80;;;;;;;27.90;39.03;101951.91;5051083;28;20090;-67
2022/07/02 02:51:32;;;;;;;1.00;0.80;;;;;;;27.90;39.00;101950.09;5051122;28;20074;-67
2022/07/02 02:53:58;;;;;;;1.25;0.90;;;;;;;27.88;38.99;101954.63;5049764;28;20029;-67
2022/07/02 02:56:24;;;;;;;1.25;0.75;;;;;;;27.93;39.00;101949.13;5051380;28;20037;-67
2022/07/02 02:58:49;;;;;;;0.93;0.80;;;;;;;27.93;38.81;101950.00;5049746;28;20052;-67
2022/07/02 03:01:15;;;;;;;1.33;0.90;;;;;;;27.92;38.94;101950.91;5048431;28;20040;-67
2022/07/02 03:03:40;;;;;;;0.82;0.80;;;;;;;27.93;38.75;101951.78;5050042;28;20114;-67
2022/07/02 03:06:06;;;;;;;0.82;0.80;;;;;;;27.94;38.96;101946.34;5048106;28;20182;-67
2022/07/02 03:08:32;;;;;;;1.13;0.70;;;;;;;27.88;38.98;101951.97;5049729;28;20546;-67
2022/07/02 03:10:57;;;;;;;1.17;0.70;;;;;;;27.91;39.01;101945.63;5049597;28;20040;-67
2022/07/02 03:13:23;;;;;;;3.20;0.90;;;;;;;27.88;38.77;101953.75;5049722;28;20406;-67
2022/07/02 03:15:48;;;;;;;1.20;0.70;;;;;;;27.87;39.03;101941.34;5050848;28;20032;-67
2022/07/02 03:18:13;;;;;;;1.40;0.90;;;;;;;27.87;39.06;101946.69;5049494;28;20045;-67
2022/07/02 03:20:39;;;;;;;1.10;0.85;;;;;;;27.85;38.95;101949.44;5050359;28;20032;-67
2022/07/02 03:23:04;;;;;;;1.27;0.88;;;;;;;27.83;39.06;101956.66;5049234;28;20033;-66
2022/07/02 03:25:29;;;;;;;1.85;0.82;;;;;;;27.84;38.97;101964.63;5050784;28;20036;-67
2022/07/02 03:27:55;;;;;;;1.20;0.80;;;;;;;27.81;38.91;101964.75;5049043;28;20037;-67
2022/07/02 03:30:20;;;;;;;1.10;0.90;;;;;;;27.83;38.70;101967.38;5050192;28;20133;-67
2022/07/02 03:32:46;;;;;;;1.20;0.80;;;;;;;27.83;38.98;101956.66;5050770;28;20553;-67
2022/07/02 03:35:11;;;;;;;1.25;0.77;;;;;;;27.82;39.09;101969.16;5032537;28;20075;-67
2022/07/02 03:37:37;;;;;;;1.17;0.88;;;;;;;27.76;39.15;101969.41;5049084;28;20029;-67
2022/07/02 03:40:02;;;;;;;1.48;0.90;;;;;;;27.75;38.92;101961.47;5050600;28;20056;-67
2022/07/02 03:42:28;;;;;;;1.08;0.80;;;;;;;27.78;38.98;101972.91;5050163;28;20035;-67
2022/07/02 03:44:53;;;;;;;1.05;0.82;;;;;;;27.73;39.07;101966.88;5050438;28;20068;-67
2022/07/02 03:47:18;;;;;;;1.13;0.80;;;;;;;27.76;39.10;101974.78;5050305;28;20526;-67
2022/07/02 03:49:45;;;;;;;1.20;0.90;;;;;;;27.71;39.42;101973.22;5044245;28;20056;-67
2022/07/02 03:52:10;;;;;;;1.20;0.90;;;;;;;27.70;39.06;101968.78;5047034;28;20086;-67
2022/07/02 03:54:36;;;;;;;1.27;0.93;;;;;;;27.75;38.96;101969.50;5044797;28;20115;-67
2022/07/02 03:57:01;;;;;;;1.10;0.73;;;;;;;27.71;38.99;101965.19;5050325;28;20493;-67
2022/07/02 03:59:26;;;;;;;0.98;0.80;;;;;;;27.73;39.27;101971.38;5050017;28;20490;-67
2022/07/02 04:01:52;;;;;;;0.88;0.75;;;;;;;27.74;38.95;101967.75;5050312;28;20033;-67
2022/07/02 04:04:19;;;;;;;1.02;0.80;;;;;;;27.72;38.90;101964.25;5049887;28;20061;-67
2022/07/02 04:06:44;;;;;;;1.05;0.80;;;;;;;27.73;39.18;101968.69;5049680;28;20041;-67
2022/07/02 04:09:10;;;;;;;1.15;0.90;;;;;;;27.70;39.40;101966.13;5048475;28;20044;-67
2022/07/02 04:11:35;;;;;;;1.40;0.95;;;;;;;27.72;39.22;101969.63;5048552;28;20114;-67
2022/07/02 04:14:00;;;;;;;1.17;0.80;;;;;;;27.70;39.01;101977.72;5049994;28;20033;-67
2022/07/02 04:16:26;;;;;;;1.70;0.90;;;;;;;27.72;39.18;101983.88;5048699;28;20044;-67
2022/07/02 04:18:51;;;;;;;1.00;0.82;;;;;;;27.69;39.07;101978.63;5049264;28;20033;-67
2022/07/02 04:21:16;;;;;;;1.17;0.80;;;;;;;27.70;38.85;101983.06;5048595;28;20033;-67
2022/07/02 04:23:42;;;;;;;1.35;0.90;;;;;;;27.76;38.70;101989.97;5049290;28;20040;-67
2022/07/02 04:26:07;;;;;;;1.25;0.82;;;;;;;27.77;38.63;101991.72;5049472;28;20043;-67
2022/07/02 04:28:32;;;;;;;1.40;0.85;;;;;;;27.76;38.68;101992.66;5049218;28;20120;-67
2022/07/02 04:30:58;;;;;;;1.10;0.90;;;;;;;27.74;38.65;101984.72;5049400;28;20044;-67
2022/07/02 04:33:23;;;;;;;1.10;0.90;;;;;;;27.76;38.42;101992.66;5049742;28;20044;-67
2022/07/02 04:35:48;;;;;;;1.10;0.90;;;;;;;27.74;38.74;101983.84;5049593;28;20037;-67
2022/07/02 04:38:14;;;;;;;0.90;0.80;;;;;;;27.75;38.45;101986.44;5049381;28;20044;-67
2022/07/02 04:40:39;;;;;;;1.17;0.80;;;;;;;27.70;38.54;101987.56;5047971;28;20032;-68
2022/07/02 04:43:05;;;;;;;1.90;0.80;;;;;;;27.71;38.85;101984.81;5049081;28;20673;-67
2022/07/02 04:45:30;;;;;;;0.98;0.82;;;;;;;27.73;38.57;101984.75;5049573;28;20680;-67
2022/07/02 04:47:55;;;;;;;1.35;0.90;;;;;;;27.76;38.64;101984.63;5046835;28;20044;-67
2022/07/02 04:50:21;;;;;;;1.35;0.90;;;;;;;27.69;38.58;101981.31;5049261;28;20033;-67
2022/07/02 04:52:48;;;;;;;1.10;0.90;;;;;;;27.73;38.71;101985.63;5048272;28;20574;-67
2022/07/02 04:55:14;;;;;;;1.17;0.73;;;;;;;27.70;38.84;101977.72;5048442;28;20033;-66
2022/07/02 04:57:39;;;;;;;1.02;0.80;;;;;;;27.70;38.76;101983.06;5049981;28;20655;-67
2022/07/02 05:00:05;;;;;;;2.05;0.90;;;;;;;27.72;38.79;101980.34;5049890;28;20070;-67
2022/07/02 05:02:30;;;;;;;1.13;0.82;;;;;;;27.72;38.66;101980.34;5048129;28;20033;-67
2022/07/02 05:04:56;;;;;;;1.15;0.85;;;;;;;27.73;38.68;101979.41;5051680;28;20032;-67
2022/07/02 05:07:21;;;;;;;1.30;0.90;;;;;;;27.72;38.82;101975.84;5051564;28;20112;-67
2022/07/02 05:09:46;;;;;;;1.08;0.90;;;;;;;27.74;38.74;101981.16;5052531;28;20086;-67
2022/07/02 05:12:12;;;;;;;1.25;0.90;;;;;;;27.72;38.83;101978.53;5052372;28;20403;-67
2022/07/02 05:14:38;;;;;;;1.10;0.80;;;;;;;27.74;39.00;101983.84;5053236;28;20037;-67
2022/07/02 05:17:04;;;;;;;1.00;0.90;;;;;;;27.70;38.91;101990.22;5053884;28;20033;-67
2022/07/02 05:19:29;;;;;;;1.10;0.98;;;;;;;27.69;38.75;101989.34;5052131;28;20036;-67
2022/07/02 05:21:54;;;;;;;2.28;0.90;;;;;;;27.69;38.92;101993.88;5053605;28;20561;-67
2022/07/02 05:24:20;;;;;;;1.02;0.80;;;;;;;27.69;38.90;101994.72;5052443;28;20032;-67
2022/07/02 05:26:45;;;;;;;1.73;0.90;;;;;;;27.70;38.78;101996.47;5053015;28;20410;-68
2022/07/02 05:29:11;;;;;;;1.15;0.88;;;;;;;27.75;38.85;102001.66;5053545;28;20036;-67
2022/07/02 05:31:36;;;;;;;1.08;0.88;;;;;;;27.75;38.69;102002.50;5051751;28;20053;-68
2022/07/02 05:34:01;;;;;;;1.00;0.90;;;;;;;27.75;38.76;101998.97;5054208;28;20035;-72
2022/07/02 05:36:27;;;;;;;1.30;0.80;;;;;;;27.67;38.80;102001.97;5053337;28;20025;-75
2022/07/02 05:38:52;;;;;;;1.95;1.00;;;;;;;27.72;38.89;101991.94;5051970;28;20506;-67
2022/07/02 05:41:17;;;;;;;1.52;0.90;;;;;;;27.78;38.85;101994.34;5052110;28;20053;-67
2022/07/02 05:43:43;;;;;;;2.33;1.00;;;;;;;27.79;38.84;101993.44;5052168;28;20057;-68
2022/07/02 05:46:08;;;;;;;1.90;0.90;;;;;;;27.79;38.99;102003.28;5052496;28;20045;-69
2022/07/02 05:48:37;;;;;;;1.50;0.90;;;;;;;27.80;39.13;102003.22;5050969;28;20505;-69
2022/07/02 05:51:02;;;;;;;3.80;1.00;;;;;;;27.82;39.23;102006.69;5052643;28;20032;-68
2022/07/02 05:53:28;;;;;;;6.75;1.00;;;;;;;27.87;39.13;102009.22;5051504;28;20051;-69
2022/07/02 05:55:53;;;;;;;2.10;0.95;;;;;;;27.92;39.20;102009.88;5051261;28;20033;-69
2022/07/02 05:58:18;;;;;;;1.83;1.00;;;;;;;27.94;39.34;102009.78;5052280;28;20475;-69
2022/07/02 06:00:44;;;;;;;2.88;1.00;;;;;;;27.99;38.96;102018.56;5052208;28;20047;-68
2022/07/02 06:03:09;;;;;;;3.50;1.10;;;;;;;28.04;39.25;102028.16;5051729;28;20483;-70
2022/07/02 06:08:18;;;;;;;5.60;1.00;;;;;;;32.56;31.33;102033.94;5048265;28;20091;-70
2022/07/02 06:10:44;;;;;;;3.78;0.95;;;;;;;34.66;27.62;102031.09;5051712;28;20394;-70
2022/07/02 06:13:09;;;;;;;2.13;0.80;;;;;;;32.74;30.33;102031.97;5050559;28;20091;-70
2022/07/02 06:15:35;;;;;;;1.55;0.80;;;;;;;29.92;34.78;102026.88;5050893;28;20040;-71
2022/07/02 06:18:00;;;;;;;1.58;0.93;;;;;;;29.07;37.03;102038.94;5050027;28;20124;-70
2022/07/02 06:20:26;;;;;;;1.42;0.90;;;;;;;28.73;37.47;102025.25;5051721;28;20024;-70
2022/07/02 06:22:52;;;;;;;2.25;0.90;;;;;;;28.58;38.08;102029.47;5052167;28;20037;-70
2022/07/02 06:25:17;;;;;;;1.60;0.90;;;;;;;28.53;38.29;102036.84;5052421;28;20039;-69
2022/07/02 06:27:42;;;;;;;2.00;0.93;;;;;;;28.47;38.29;102031.75;5050874;28;20675;-70
2022/07/02 06:30:08;;;;;;;5.50;0.80;;;;;;;28.45;38.71;102041.66;5052867;28;20025;-71
2022/07/02 06:32:35;;;;;;;2.05;1.05;;;;;;;28.46;38.60;102040.72;5052004;28;20051;-68
2022/07/02 06:35:01;;;;;;;1.83;0.90;;;;;;;28.43;38.70;102041.72;5050973;28;20042;-70
2022/07/02 06:37:26;;;;;;;2.15;0.95;;;;;;;28.42;39.05;102039.97;5042666;28;20859;-70
2022/07/02 06:39:51;;;;;;;2.75;1.00;;;;;;;28.45;38.63;102045.22;5050958;28;20037;-71
2022/07/02 06:42:20;;;;;;;1.33;0.80;;;;;;;28.42;39.21;102048.00;5051828;28;20029;-68
2022/07/02 06:44:51;;;;;;;1.77;0.98;;;;;;;28.41;39.17;102037.38;5049716;28;20049;-68
2022/07/02 06:47:17;;;;;;;1.17;0.90;;;;;;;28.42;38.84;102050.69;5050525;28;20559;-68
2022/07/02 06:49:43;;;;;;;2.03;0.93;;;;;;;28.41;39.28;102056.16;5050952;28;20124;-69
2022/07/02 06:52:08;;;;;;;1.15;0.88;;;;;;;28.42;39.42;102047.16;5050515;28;20027;-68
2022/07/02 06:54:35;;;;;;;1.77;0.80;;;;;;;28.44;39.02;102048.81;5049824;28;20115;-68
2022/07/02 06:57:00;;;;;;;2.20;0.90;;;;;;;28.50;39.11;102048.56;5048413;28;20035;-68
2022/07/02 06:59:26;;;;;;;2.05;0.88;;;;;;;28.51;38.84;102050.31;5051184;28;20024;-68
2022/07/02 07:01:51;;;;;;;4.13;0.80;;;;;;;28.53;39.13;102040.41;5049875;28;20128;-67
2022/07/02 07:04:17;;;;;;;1.70;0.80;;;;;;;28.58;39.07;102053.63;5051284;28;20033;-69
2022/07/02 07:09:13;;;;;;;3.22;0.80;;;;;;;28.61;39.49;102053.47;5045654;28;20390;-69
2022/07/02 07:11:39;;;;;;;2.42;0.90;;;;;;;28.62;39.54;102055.22;5050521;28;20033;-69
2022/07/02 07:14:05;;;;;;;1.42;0.80;;;;;;;28.63;39.57;102060.53;5049644;28;20444;-69
2022/07/02 07:16:30;;;;;;;3.92;0.85;;;;;;;28.66;39.11;102064.91;5048855;28;20495;-69
2022/07/02 07:21:21;;;;;;;3.67;1.05;;;;;;;28.70;39.41;102068.31;5049766;28;20107;-69
2022/07/02 07:23:46;;;;;;;2.58;0.90;;;;;;;28.77;39.34;102064.47;5049579;28;20112;-69
2022/07/02 07:26:11;;;;;;;4.88;1.02;;;;;;;28.72;39.23;102074.50;5048052;28;20434;-69
2022/07/02 07:28:37;;;;;;;1.85;0.90;;;;;;;28.72;39.31;102078.06;5049181;28;20039;-70
2022/07/02 07:31:02;;;;;;;6.97;1.00;;;;;;;28.77;39.36;102083.25;5046864;28;20033;-70
2022/07/02 07:33:28;;;;;;;2.08;1.00;;;;;;;28.74;38.99;102086.91;5046659;28;20028;-71
2022/07/02 07:35:53;;;;;;;8.90;1.10;;;;;;;28.76;38.79;102078.81;5043845;28;20029;-73
2022/07/02 07:38:19;;;;;;;3.03;0.85;;;;;;;28.76;38.50;102085.06;5049453;28;20078;-73
2022/07/02 07:40:44;;;;;;;2.20;0.90;;;;;;;28.78;38.28;102080.50;5048125;28;20442;-73
2022/07/02 07:43:09;;;;;;;2.83;0.90;;;;;;;28.79;38.06;102076.00;5049117;28;20041;-73
2022/07/02 07:45:35;;;;;;;2.17;0.98;;;;;;;28.79;37.94;102082.22;5049515;28;20140;-72
2022/07/02 07:48:00;;;;;;;2.08;0.95;;;;;;;28.79;38.06;102074.16;5048561;28;20029;-73
2022/07/02 07:50:25;;;;;;;3.22;1.05;;;;;;;28.79;37.73;102073.31;5049106;28;20475;-72
2022/07/02 07:52:59;;;;;;;2.70;1.13;;;;;;;28.81;38.05;102076.78;5047306;28;20463;-73
2022/07/02 07:55:26;;;;;;;2.45;1.00;;;;;;;28.78;37.93;102079.63;5042407;28;20048;-71
2022/07/02 07:57:51;;;;;;;3.95;1.00;;;;;;;28.78;37.50;102074.25;5047578;28;20027;-72
2022/07/02 08:00:17;;;;;;;2.50;0.90;;;;;;;28.78;37.26;102072.44;5047753;28;20033;-72
2022/07/02 08:02:42;;;;;;;2.33;1.00;;;;;;;28.80;36.95;102072.34;5048653;28;20033;-72
2022/07/02 08:05:08;;;;;;;2.47;1.20;;;;;;;28.77;36.95;102075.19;5048934;28;20039;-72
2022/07/02 08:07:38;;;;;;;1.95;0.80;;;;;;;28.73;37.00;102068.19;5047664;28;20029;-72
2022/07/02 08:10:06;;;;;;;3.50;1.10;;;;;;;28.77;36.70;102072.50;5047406;28;20037;-71
2022/07/02 08:12:32;;;;;;;3.60;1.00;;;;;;;28.75;36.25;102069.88;5047319;28;20028;-71
2022/07/02 08:14:59;;;;;;;4.63;1.10;;;;;;;28.74;35.25;102073.50;5048875;28;20086;-71
2022/07/02 08:17:24;;;;;;;4.55;1.00;;;;;;;28.74;35.36;102075.31;5048656;28;20025;-71
2022/07/02 08:19:50;;;;;;;4.25;0.90;;;;;;;28.73;34.30;102070.88;5047909;28;20086;-71
2022/07/02 08:22:15;;;;;;;2.20;0.90;;;;;;;28.72;34.17;102079.84;5048784;28;20036;-71
2022/07/02 08:24:40;;;;;;;3.80;0.95;;;;;;;28.68;33.94;102076.41;5037344;28;20040;-82
2022/07/02 08:27:06;;;;;;;5.93;1.00;;;;;;;28.64;35.48;102077.50;5040665;28;20045;-78
2022/07/02 08:29:31;;;;;;;5.45;1.00;;;;;;;28.71;35.21;102070.06;5044919;28;20116;-75
2022/07/02 08:31:56;;;;;;;5.82;0.95;;;;;;;28.66;34.98;102075.63;5047466;28;20505;-75
2022/07/02 08:34:22;;;;;;;1.88;0.98;;;;;;;28.62;35.24;102061.44;5048632;28;20086;-78
2022/07/02 08:36:47;;;;;;;5.90;1.02;;;;;;;28.62;35.24;102066.81;5043218;28;20033;-77
2022/07/02 08:39:12;;;;;;;2.67;0.88;;;;;;;28.69;35.39;102063.88;5046628;28;20040;-79
2022/07/02 08:41:40;;;;;;;12.85;1.48;;;;;;;28.79;36.30;102067.97;5049060;28;20024;-80
2022/07/02 08:44:07;;;;;;;6.57;1.17;;;;;;;28.71;34.67;102062.88;5046793;28;20395;-75
2022/07/02 08:46:46;;;;;;;5.70;1.02;;;;;;;28.72;35.27;102059.25;5043529;28;20021;-69
2022/07/02 08:49:13;;;;;;;4.38;1.00;;;;;;;28.79;33.65;102068.78;5032341;28;20039;-68
2022/07/02 08:51:40;;;;;;;7.07;1.10;;;;;;;28.81;32.93;102068.75;5046158;28;20028;-68
2022/07/02 08:54:06;;;;;;;3.72;0.93;;;;;;;28.81;32.79;102066.06;5041782;28;20053;-68
2022/07/02 08:56:32;;;;;;;5.57;0.90;;;;;;;28.75;32.23;102069.00;5030900;28;20026;-68
2022/07/02 08:59:00;;;;;;;7.82;1.00;;;;;;;28.73;33.82;102062.81;5021663;28;20045;-79
2022/07/02 09:01:25;;;;;;;5.65;1.08;;;;;;;28.71;32.41;102062.00;5048117;28;20028;-70
2022/07/02 09:03:52;;;;;;;6.93;0.75;;;;;;;28.79;32.79;102060.75;5047992;28;20035;-74
2022/07/02 09:06:19;;;;;;;2.60;0.98;;;;;;;28.80;32.76;102058.94;5046700;28;20043;-74
2022/07/02 09:08:45;;;;;;;6.43;0.93;;;;;;;28.70;32.53;102058.44;5046668;28;20056;-72
2022/07/02 09:11:11;;;;;;;7.00;1.10;;;;;;;28.80;32.54;102061.63;5047376;28;20091;-68
2022/07/02 09:13:37;;;;;;;6.47;1.00;;;;;;;28.80;32.21;102064.31;5048275;28;20037;-69
2022/07/02 09:16:05;;;;;;;2.80;0.90;;;;;;;28.71;32.32;102064.69;5047208;28;20037;-73
2022/07/02 09:18:31;;;;;;;7.65;1.10;;;;;;;28.80;32.03;102064.31;5047632;28;20036;-67
2022/07/02 09:20:56;;;;;;;5.07;0.85;;;;;;;28.77;31.57;102059.09;5047686;28;20399;-68
2022/07/02 09:23:22;;;;;;;8.75;1.02;;;;;;;28.80;31.26;102056.25;5035203;28;20490;-66
2022/07/02 09:25:49;;;;;;;3.92;0.80;;;;;;;28.78;31.43;102055.47;5047730;28;20053;-68
2022/07/02 09:28:16;;;;;;;7.70;0.95;;;;;;;28.71;31.03;102052.16;5048527;28;20108;-67
2022/07/02 09:30:42;;;;;;;4.00;0.70;;;;;;;28.78;30.71;102055.47;5047522;28;20029;-67
2022/07/02 09:33:28;;;;;;;3.28;0.70;;;;;;;28.75;30.36;102048.41;5048993;28;20028;-67
2022/07/02 09:35:58;;;;;;;1.67;0.70;;;;;;;28.80;30.20;102048.19;5041628;28;20031;-67
2022/07/02 09:38:24;;;;;;;4.63;0.80;;;;;;;28.82;30.31;102049.88;5048692;28;20418;-67
2022/07/02 09:40:54;;;;;;;1.40;0.60;;;;;;;28.82;30.32;102054.38;5048413;28;20167;-67
2022/07/02 09:43:31;;;;;;;4.65;0.85;;;;;;;28.79;30.28;102050.00;5049611;28;20493;-67
2022/07/02 09:45:58;;;;;;;3.13;0.88;;;;;;;28.82;30.25;102055.25;5048575;28;20825;-71
2022/07/02 09:48:24;;;;;;;10.30;0.98;;;;;;;28.59;30.10;102055.34;5050266;28;20127;-68
2022/07/02 09:50:49;;;;;;;4.65;0.80;;;;;;;28.54;30.31;102052.88;5051694;28;20224;-70
2022/07/02 09:53:15;;;;;;;5.53;0.77;;;;;;;28.77;30.21;102049.22;5051411;28;20021;-69
2022/07/02 09:55:41;;;;;;;6.18;0.68;;;;;;;28.81;30.04;102047.25;5050662;28;20032;-70
2022/07/02 09:58:06;;;;;;;3.83;0.70;;;;;;;28.84;29.96;102044.47;5051526;28;20071;-70
2022/07/02 10:00:34;;;;;;;5.90;0.80;;;;;;;28.88;29.70;102044.25;5051637;28;20027;-69
2022/07/02 10:03:01;;;;;;;3.50;0.70;;;;;;;28.87;30.07;102045.19;5051326;28;20055;-68
2022/07/02 10:05:33;;;;;;;3.78;0.70;;;;;;;28.82;29.84;102041.84;5050257;28;20032;-69
2022/07/02 10:08:00;;;;;;;2.72;0.85;;;;;;;28.83;29.96;102043.59;5046097;28;20052;-69
2022/07/02 10:10:46;;;;;;;3.55;0.73;;;;;;;28.89;30.43;102042.44;5033379;28;20029;-68
2022/07/02 10:13:13;;;;;;;3.90;0.90;;;;;;;28.94;29.63;102046.66;5035229;28;20025;-68
2022/07/02 10:15:55;;;;;;;2.20;0.70;;;;;;;28.96;30.02;102039.41;5049728;28;20511;-69
2022/07/02 10:18:23;;;;;;;1.63;0.82;;;;;;;28.91;29.89;102037.88;5049072;28;20082;-71
2022/07/02 10:20:49;;;;;;;1.73;0.75;;;;;;;28.94;29.94;102038.59;5050287;28;20109;-70
2022/07/02 10:23:15;;;;;;;4.18;0.70;;;;;;;28.73;30.17;102036.81;5033220;28;20461;-69
2022/07/02 10:25:41;;;;;;;12.88;1.17;;;;;;;28.85;30.06;102030.94;5050093;28;20483;-70
2022/07/02 10:28:07;;;;;;;7.95;0.90;;;;;;;28.92;30.36;102026.19;5050488;28;20540;-70
2022/07/02 10:30:33;;;;;;;14.77;1.20;;;;;;;28.99;30.61;102028.53;5047257;28;20033;-70
2022/07/02 10:33:05;;;;;;;8.65;1.00;;;;;;;29.07;30.36;102030.00;5050848;28;20511;-70
2022/07/02 10:35:33;;;;;;;4.25;0.80;;;;;;;29.08;30.33;102031.75;5049052;28;20047;-70
2022/07/02 10:38:00;;;;;;;3.38;0.70;;;;;;;29.10;30.60;102029.84;5048465;28;20048;-70
2022/07/02 10:40:26;;;;;;;6.38;0.80;;;;;;;29.10;30.58;102024.47;5050601;28;20566;-70
2022/07/02 10:42:53;;;;;;;5.78;0.88;;;;;;;29.12;30.99;102023.47;5050449;28;20033;-69
2022/07/02 10:45:21;;;;;;;10.38;0.90;;;;;;;29.15;30.75;102030.53;5050234;28;20395;-70
2022/07/02 10:48:04;;;;;;;4.50;0.63;;;;;;;29.13;31.11;102027.03;5049845;28;20128;-70
2022/07/02 10:50:35;;;;;;;3.90;0.73;;;;;;;29.14;30.87;102024.28;5050217;28;20042;-70
2022/07/02 10:53:09;;;;;;;5.10;0.85;;;;;;;29.16;30.95;102022.38;5048545;28;20059;-70
2022/07/02 10:55:36;;;;;;;3.05;0.70;;;;;;;29.18;31.36;102022.31;5045132;28;20407;-70
2022/07/02 10:58:04;;;;;;;4.72;0.70;;;;;;;29.18;31.04;102019.63;5048854;28;20029;-70
2022/07/02 11:00:33;;;;;;;3.83;0.70;;;;;;;29.17;31.36;102026.81;5050316;28;20433;-70
2022/07/02 11:03:11;;;;;;;10.07;0.82;;;;;;;29.18;31.24;102025.00;5049284;28;20033;-70
2022/07/02 11:05:50;;;;;;;3.30;0.70;;;;;;;29.17;31.33;102023.25;5049514;28;20375;-70
2022/07/02 11:08:48;;;;;;;4.18;0.75;;;;;;;29.17;31.63;102008.00;5048324;28;20133;-70
2022/07/02 11:11:29;;;;;;;3.17;0.73;;;;;;;29.16;31.37;102010.75;5026463;28;20119;-69
2022/07/02 11:13:58;;;;;;;2.40;0.60;;;;;;;29.16;31.33;102003.59;5046610;28;20780;-70
2022/07/02 11:16:25;;;;;;;4.25;0.60;;;;;;;29.18;31.62;102007.06;5048696;28;20025;-70
2022/07/02 11:18:52;;;;;;;4.68;0.70;;;;;;;29.18;31.62;101998.16;5049802;28;20336;-70
2022/07/02 11:21:18;;;;;;;2.47;0.80;;;;;;;29.19;31.52;101998.09;5048211;28;20532;-70
2022/07/02 11:23:44;;;;;;;1.80;0.68;;;;;;;29.20;31.40;101999.84;5049340;28;20033;-70
2022/07/02 11:26:14;;;;;;;3.40;0.70;;;;;;;29.22;31.74;101989.88;5048860;28;20028;-70
2022/07/02 11:28:39;;;;;;;2.45;0.60;;;;;;;29.25;31.63;101987.06;5048617;28;20032;-70
2022/07/02 11:31:06;;;;;;;2.63;0.80;;;;;;;29.25;31.70;101983.50;5049433;28;20032;-70
2022/07/02 11:33:32;;;;;;;4.07;0.70;;;;;;;29.11;31.95;101989.50;5051219;28;20479;-69